createdAt,value
2018-12-07T00:01:07.508Z,11.93
2018-12-07T00:03:35.243Z,11.95
2018-12-07T00:06:03.052Z,11.98
2018-12-07T00:08:31.745Z,12.00
2018-12-07T00:10:59.526Z,12.03
2018-12-07T00:13:27.314Z,11.91
2018-12-07T00:15:55.098Z,11.95
2018-12-07T00:18:22.870Z,11.98
2018-12-07T00:20:50.691Z,12.02
2018-12-07T00:23:18.458Z,12.00
2018-12-07T00:25:46.199Z,11.97
2018-12-07T00:28:14.017Z,11.96
2018-12-07T00:30:41.774Z,11.94
2018-12-07T00:33:09.576Z,11.97
2018-12-07T00:35:37.311Z,11.98
2018-12-07T00:38:05.066Z,12.04
2018-12-07T00:40:32.812Z,11.97
2018-12-07T00:43:00.570Z,11.93
2018-12-07T00:45:28.301Z,11.95
2018-12-07T00:47:56.110Z,11.97
2018-12-07T00:50:23.862Z,11.95
2018-12-07T00:52:51.626Z,12.00
2018-12-07T00:55:30.515Z,11.97
2018-12-07T00:57:58.446Z,12.08
2018-12-07T01:00:26.258Z,12.08
2018-12-07T01:02:54.052Z,12.05
2018-12-07T01:05:21.873Z,12.05
2018-12-07T01:07:49.657Z,12.11
2018-12-07T01:10:17.417Z,12.00
2018-12-07T01:12:45.156Z,12.08
2018-12-07T01:15:12.902Z,12.10
2018-12-07T01:17:40.662Z,12.03
2018-12-07T01:20:08.498Z,12.01
2018-12-07T01:22:36.258Z,12.05
2018-12-07T01:25:04.578Z,12.02
2018-12-07T01:27:32.421Z,12.10
2018-12-07T01:30:00.176Z,12.06
2018-12-07T01:32:27.953Z,12.05
2018-12-07T01:34:55.702Z,12.05
2018-12-07T01:37:23.497Z,12.09
2018-12-07T01:39:51.253Z,12.07
2018-12-07T01:42:19.023Z,12.03
2018-12-07T01:44:46.771Z,12.05
2018-12-07T01:47:14.540Z,12.03
2018-12-07T01:49:42.306Z,11.95
2018-12-07T01:52:10.052Z,11.98
2018-12-07T01:54:37.837Z,12.06
2018-12-07T01:57:05.613Z,12.10
2018-12-07T01:59:33.374Z,12.17
2018-12-07T02:02:01.112Z,12.20
2018-12-07T02:04:28.910Z,12.08
2018-12-07T02:06:56.727Z,12.18
2018-12-07T02:09:24.516Z,12.06
2018-12-07T02:11:52.300Z,12.18
2018-12-07T02:14:20.049Z,12.07
2018-12-07T02:16:47.856Z,12.08
2018-12-07T02:19:15.629Z,12.22
2018-12-07T02:21:43.394Z,12.13
2018-12-07T02:24:11.148Z,12.05
2018-12-07T02:26:38.930Z,12.00
2018-12-07T02:29:06.694Z,12.06
2018-12-07T02:31:34.449Z,12.10
2018-12-07T02:34:02.215Z,12.20
2018-12-07T02:36:29.991Z,12.15
2018-12-07T02:38:57.762Z,12.11
2018-12-07T02:41:25.493Z,12.11
2018-12-07T02:43:53.196Z,12.12
2018-12-07T02:46:20.964Z,12.07
2018-12-07T02:48:48.704Z,12.10
2018-12-07T02:51:16.440Z,12.03
2018-12-07T02:53:44.357Z,11.98
2018-12-07T02:56:12.096Z,12.08
2018-12-07T02:58:40.048Z,12.15
2018-12-07T03:01:07.790Z,12.15
2018-12-07T03:03:35.559Z,12.06
2018-12-07T03:11:02.165Z,12.08
2018-12-07T03:13:29.900Z,12.09
2018-12-07T03:15:57.708Z,12.11
2018-12-07T03:18:30.338Z,12.08
2018-12-07T03:20:58.084Z,12.12
2018-12-07T03:23:25.891Z,12.10
2018-12-07T03:25:53.652Z,12.11
2018-12-07T03:28:21.402Z,12.14
2018-12-07T03:30:49.134Z,12.11
2018-12-07T03:33:16.940Z,12.09
2018-12-07T03:35:44.793Z,12.11
2018-12-07T03:38:12.650Z,12.10
2018-12-07T03:40:41.391Z,12.13
2018-12-07T03:43:09.176Z,12.15
2018-12-07T03:45:36.941Z,12.06
2018-12-07T03:48:04.729Z,12.17
2018-12-07T03:50:32.493Z,12.14
2018-12-07T03:53:00.242Z,12.13
2018-12-07T03:55:27.998Z,12.07
2018-12-07T03:57:55.754Z,12.09
2018-12-07T04:00:23.512Z,12.08
2018-12-07T04:02:51.303Z,11.99
2018-12-07T04:05:19.066Z,12.06
2018-12-07T04:07:46.874Z,12.08
2018-12-07T04:10:14.845Z,12.08
2018-12-07T04:12:42.641Z,12.16
2018-12-07T04:15:10.450Z,12.13
2018-12-07T04:17:38.246Z,12.10
2018-12-07T04:20:06.151Z,12.12
2018-12-07T04:22:33.915Z,12.15
2018-12-07T04:25:01.694Z,12.23
2018-12-07T04:27:29.871Z,12.12
2018-12-07T04:30:09.552Z,12.13
2018-12-07T04:32:37.314Z,12.13
2018-12-07T04:35:05.075Z,12.06
2018-12-07T04:37:32.807Z,12.11
2018-12-07T04:40:00.582Z,12.06
2018-12-07T04:42:28.300Z,12.15
2018-12-07T04:44:56.077Z,12.03
2018-12-07T04:47:23.810Z,12.11
2018-12-07T04:49:51.572Z,12.16
2018-12-07T04:52:19.368Z,12.12
2018-12-07T04:54:47.107Z,12.07
2018-12-07T04:57:14.889Z,12.13
2018-12-07T04:59:42.684Z,12.11
2018-12-07T05:02:11.060Z,12.11
2018-12-07T05:04:38.828Z,12.01
2018-12-07T05:07:06.661Z,12.01
2018-12-07T05:09:34.423Z,11.91
2018-12-07T05:12:02.296Z,12.00
2018-12-07T05:14:29.961Z,11.96
2018-12-07T05:16:57.667Z,11.98
2018-12-07T05:19:25.366Z,11.97
2018-12-07T05:21:53.178Z,11.94
2018-12-07T05:24:20.937Z,11.96
2018-12-07T05:26:48.737Z,12.01
2018-12-07T05:29:16.462Z,11.93
2018-12-07T05:31:44.226Z,11.93
2018-12-07T05:34:11.987Z,11.90
2018-12-07T05:36:39.746Z,11.93
2018-12-07T05:39:07.636Z,11.95
2018-12-07T05:41:35.442Z,11.90
2018-12-07T05:44:03.240Z,11.91
2018-12-07T05:46:30.963Z,11.90
2018-12-07T05:48:58.804Z,11.86
2018-12-07T05:51:26.528Z,11.84
2018-12-07T05:53:54.484Z,11.84
2018-12-07T05:56:22.341Z,11.90
2018-12-07T05:58:50.105Z,11.81
2018-12-07T06:01:17.930Z,11.86
2018-12-07T06:03:45.677Z,11.88
2018-12-07T06:06:13.481Z,11.80
2018-12-07T06:08:41.305Z,11.80
2018-12-07T06:11:09.033Z,11.79
2018-12-07T06:13:36.749Z,11.79
2018-12-07T06:16:04.507Z,11.76
2018-12-07T06:18:32.277Z,11.81
2018-12-07T06:21:00.046Z,11.75
2018-12-07T06:23:27.833Z,11.76
2018-12-07T06:25:55.577Z,11.75
2018-12-07T06:28:23.461Z,11.76
2018-12-07T06:30:51.262Z,11.76
2018-12-07T06:33:19.001Z,11.81
2018-12-07T06:35:46.848Z,11.78
2018-12-07T06:38:14.649Z,11.79
2018-12-07T06:40:42.415Z,11.79
2018-12-07T06:43:10.161Z,11.78
2018-12-07T06:45:38.025Z,11.78
2018-12-07T06:48:05.910Z,11.80
2018-12-07T06:50:33.650Z,11.86
2018-12-07T06:53:02.095Z,11.90
2018-12-07T06:55:29.841Z,11.94
2018-12-07T06:57:57.540Z,11.98
2018-12-07T07:00:25.291Z,12.04
2018-12-07T07:02:53.016Z,12.07
2018-12-07T07:05:20.734Z,11.94
2018-12-07T07:07:48.505Z,11.85
2018-12-07T07:10:16.669Z,11.96
2018-12-07T07:12:44.459Z,11.96
2018-12-07T07:15:12.280Z,11.97
2018-12-07T07:17:40.109Z,12.02
2018-12-07T07:20:08.210Z,12.05
2018-12-07T07:22:35.980Z,12.05
2018-12-07T07:25:04.205Z,12.17
2018-12-07T07:27:31.924Z,12.16
2018-12-07T07:29:59.828Z,12.12
2018-12-07T07:32:27.604Z,12.10
2018-12-07T07:34:55.441Z,12.18
2018-12-07T07:37:23.405Z,12.15
2018-12-07T07:39:51.156Z,12.16
2018-12-07T07:42:18.850Z,12.13
2018-12-07T07:44:46.564Z,12.10
2018-12-07T07:47:14.363Z,12.11
2018-12-07T07:49:42.471Z,12.10
2018-12-07T07:52:10.266Z,12.17
2018-12-07T07:54:37.998Z,12.12
2018-12-07T07:57:05.978Z,12.11
2018-12-07T07:59:33.692Z,12.18
2018-12-07T08:02:01.438Z,12.16
2018-12-07T08:04:29.173Z,12.20
2018-12-07T08:06:57.231Z,12.16
2018-12-07T08:09:24.957Z,12.25
2018-12-07T08:11:52.758Z,12.19
2018-12-07T08:14:20.485Z,12.19
2018-12-07T08:16:48.219Z,12.19
2018-12-07T08:19:16.319Z,12.13
2018-12-07T08:21:44.111Z,12.16
2018-12-07T08:24:11.860Z,12.12
2018-12-07T08:26:39.600Z,12.22
2018-12-07T08:29:07.470Z,12.22
2018-12-07T08:31:35.248Z,12.23
2018-12-07T08:34:03.056Z,12.23
2018-12-07T08:36:30.802Z,12.18
2018-12-07T08:38:58.594Z,12.22
2018-12-07T08:41:26.501Z,12.21
2018-12-07T08:43:55.046Z,12.13
2018-12-07T08:46:22.886Z,12.13
2018-12-07T08:48:50.661Z,12.17
2018-12-07T08:51:18.462Z,12.19
2018-12-07T08:53:46.185Z,12.13
2018-12-07T08:56:13.961Z,12.14
2018-12-07T08:58:42.606Z,12.18
2018-12-07T09:01:10.458Z,12.17
2018-12-07T09:03:38.396Z,12.13
2018-12-07T09:06:06.143Z,12.23
2018-12-07T09:08:33.900Z,12.23
2018-12-07T09:11:01.618Z,12.25
2018-12-07T09:13:29.364Z,12.21
2018-12-07T09:15:57.143Z,12.17
2018-12-07T09:18:24.953Z,12.19
2018-12-07T09:20:54.163Z,12.23
2018-12-07T09:23:22.358Z,12.21
2018-12-07T09:25:50.086Z,12.19
2018-12-07T09:28:17.847Z,12.19
2018-12-07T09:30:45.642Z,12.19
2018-12-07T09:33:13.505Z,12.18
2018-12-07T09:35:41.232Z,12.16
2018-12-07T09:38:13.079Z,12.13
2018-12-07T09:40:38.955Z,12.15
2018-12-07T09:43:06.666Z,12.13
2018-12-07T09:45:34.479Z,12.12
2018-12-07T09:48:02.354Z,12.09
2018-12-07T09:50:30.165Z,12.10
2018-12-07T09:52:57.970Z,12.10
2018-12-07T09:55:25.682Z,12.12
2018-12-07T09:58:02.475Z,12.07
2018-12-07T10:00:30.268Z,12.12
2018-12-07T10:03:03.997Z,12.08
2018-12-07T10:05:33.506Z,12.06
2018-12-07T10:08:02.817Z,12.08
2018-12-07T10:10:33.724Z,12.08
2018-12-07T10:13:08.319Z,12.11
2018-12-07T10:15:45.118Z,12.12
2018-12-07T10:18:12.880Z,12.11
2018-12-07T10:20:40.720Z,12.08
2018-12-07T10:23:08.508Z,12.09
2018-12-07T10:25:36.291Z,12.13
2018-12-07T10:33:03.667Z,12.05
2018-12-07T10:35:31.473Z,12.06
2018-12-07T10:37:59.423Z,12.05
2018-12-07T10:40:27.153Z,12.03
2018-12-07T10:42:54.891Z,12.02
2018-12-07T10:45:22.666Z,12.05
2018-12-07T10:47:50.675Z,12.07
2018-12-07T10:50:18.528Z,12.07
2018-12-07T10:52:46.325Z,12.01
2018-12-07T10:55:14.071Z,12.03
2018-12-07T10:57:41.850Z,12.06
2018-12-07T11:00:22.813Z,12.06
2018-12-07T11:02:53.349Z,12.09
2018-12-07T11:05:27.556Z,12.01
2018-12-07T11:08:00.740Z,12.05
2018-12-07T11:10:34.033Z,12.05
2018-12-07T11:13:07.413Z,12.05
2018-12-07T11:15:40.774Z,12.05
2018-12-07T11:18:14.053Z,12.04
2018-12-07T11:20:47.294Z,12.06
2018-12-07T11:23:23.130Z,12.08
2018-12-07T11:25:56.445Z,12.05
2018-12-07T11:28:29.737Z,12.06
2018-12-07T11:31:03.789Z,12.05
2018-12-07T11:33:48.934Z,12.10
2018-12-07T11:36:16.705Z,12.11
2018-12-07T11:38:44.441Z,12.17
2018-12-07T11:41:12.179Z,12.15
2018-12-07T11:43:39.960Z,12.12
2018-12-07T11:46:08.452Z,12.15
2018-12-07T11:48:36.202Z,12.14
2018-12-07T11:51:04.024Z,12.17
2018-12-07T11:53:31.738Z,12.19
2018-12-07T11:55:59.455Z,12.13
2018-12-07T11:58:27.188Z,12.16
2018-12-07T12:00:54.972Z,12.18
2018-12-07T12:03:22.750Z,12.14
2018-12-07T12:05:50.551Z,12.09
2018-12-07T12:08:18.410Z,12.13
2018-12-07T12:10:46.136Z,12.12
2018-12-07T12:13:14.051Z,12.13
2018-12-07T12:15:41.828Z,12.11
2018-12-07T12:18:09.592Z,12.12
2018-12-07T12:20:37.579Z,12.11
2018-12-07T12:23:05.449Z,12.11
2018-12-07T12:25:33.190Z,12.10
2018-12-07T12:28:00.986Z,12.10
2018-12-07T12:30:28.884Z,12.10
2018-12-07T12:32:56.677Z,12.11
2018-12-07T12:35:24.409Z,12.12
2018-12-07T12:37:52.176Z,12.11
2018-12-07T12:40:19.926Z,12.10
2018-12-07T12:42:47.691Z,12.12
2018-12-07T12:45:15.464Z,12.11
2018-12-07T12:47:43.661Z,12.11
2018-12-07T12:50:16.997Z,12.09
2018-12-07T12:52:44.761Z,12.10
2018-12-07T12:55:12.560Z,12.08
2018-12-07T12:57:40.393Z,12.11
2018-12-07T13:00:08.258Z,12.09
2018-12-07T13:02:35.983Z,12.05
2018-12-07T13:05:03.965Z,12.10
2018-12-07T13:07:31.706Z,12.03
2018-12-07T13:09:59.501Z,12.03
2018-12-07T13:12:27.304Z,12.06
2018-12-07T13:14:55.478Z,12.11
2018-12-07T13:17:23.382Z,12.11
2018-12-07T13:19:51.306Z,12.12
2018-12-07T13:22:19.085Z,12.10
2018-12-07T13:24:46.870Z,12.15
2018-12-07T13:27:14.654Z,12.16
2018-12-07T13:29:42.422Z,12.14
2018-12-07T13:32:10.165Z,12.15
2018-12-07T13:34:37.981Z,12.19
2018-12-07T13:37:05.748Z,12.16
2018-12-07T13:39:33.654Z,12.16
2018-12-07T13:42:01.596Z,12.08
2018-12-07T13:44:29.757Z,12.09
2018-12-07T13:46:57.790Z,12.09
2018-12-07T13:49:25.690Z,12.07
2018-12-07T13:51:53.673Z,12.08
2018-12-07T13:54:21.497Z,12.05
2018-12-07T13:56:49.396Z,12.07
2018-12-07T13:59:17.286Z,12.09
2018-12-07T14:01:45.159Z,12.18
2018-12-07T14:04:13.002Z,12.08
2018-12-07T14:06:41.556Z,12.11
2018-12-07T14:09:09.447Z,12.03
2018-12-07T14:11:37.489Z,12.04
2018-12-07T14:14:05.390Z,12.04
2018-12-07T14:16:33.259Z,12.06
2018-12-07T14:19:01.269Z,12.08
2018-12-07T14:21:29.831Z,12.07
2018-12-07T14:23:57.737Z,12.06
2018-12-07T14:26:25.643Z,12.07
2018-12-07T14:28:53.942Z,12.01
2018-12-07T14:31:21.916Z,12.00
2018-12-07T14:33:49.794Z,12.02
2018-12-07T14:36:17.584Z,11.98
2018-12-07T14:38:45.711Z,12.09
2018-12-07T14:41:13.782Z,12.09
2018-12-07T14:43:41.717Z,12.01
2018-12-07T14:46:09.520Z,12.02
2018-12-07T14:48:37.412Z,11.99
2018-12-07T14:51:05.645Z,11.91
2018-12-07T14:53:33.637Z,11.98
2018-12-07T14:56:01.859Z,11.94
2018-12-07T14:58:29.782Z,11.96
2018-12-07T15:00:57.681Z,12.01
2018-12-07T15:03:25.673Z,11.99
2018-12-07T15:05:53.570Z,12.04
2018-12-07T15:08:21.362Z,12.07
2018-12-07T15:10:49.336Z,12.05
2018-12-07T15:13:17.367Z,12.01
2018-12-07T15:15:45.528Z,12.04
2018-12-07T15:18:13.427Z,11.97
2018-12-07T15:20:41.419Z,11.90
2018-12-07T15:23:09.424Z,11.90
2018-12-07T15:25:37.494Z,11.89
2018-12-07T15:28:05.320Z,11.86
2018-12-07T15:30:33.041Z,11.84
2018-12-07T15:33:00.990Z,11.87
2018-12-07T15:35:28.938Z,11.90
2018-12-07T15:37:56.834Z,11.85
2018-12-07T15:40:24.846Z,11.89
2018-12-07T15:42:52.777Z,11.88
2018-12-07T15:45:20.793Z,11.90
2018-12-07T15:47:48.770Z,11.92
2018-12-07T15:50:16.702Z,11.95
2018-12-07T15:52:47.030Z,11.97
2018-12-07T15:55:14.974Z,11.96
2018-12-07T15:57:43.076Z,11.95
2018-12-07T16:00:11.007Z,11.85
2018-12-07T16:02:38.971Z,11.84
2018-12-07T16:05:07.198Z,11.53
2018-12-07T16:07:35.121Z,11.25
2018-12-07T16:10:03.490Z,11.15
2018-12-07T16:12:31.476Z,11.12
2018-12-07T16:14:59.512Z,10.92
2018-12-07T16:17:27.404Z,10.89
2018-12-07T16:19:55.471Z,10.68
2018-12-07T16:22:23.445Z,10.52
2018-12-07T16:24:51.249Z,10.50
2018-12-07T16:27:19.081Z,10.52
2018-12-07T16:29:47.043Z,10.43
2018-12-07T16:32:14.985Z,10.50
2018-12-07T16:34:42.877Z,10.46
2018-12-07T16:37:10.637Z,10.51
2018-12-07T16:39:38.569Z,10.37
2018-12-07T16:42:06.601Z,10.31
2018-12-07T16:44:34.420Z,10.34
2018-12-07T16:47:02.296Z,10.24
2018-12-07T16:49:30.127Z,10.23
2018-12-07T16:51:58.732Z,10.02
2018-12-07T16:54:26.865Z,10.05
2018-12-07T16:56:55.010Z,9.96
2018-12-07T16:59:23.009Z,10.06
2018-12-07T17:01:50.883Z,9.94
2018-12-07T17:04:18.895Z,9.93
2018-12-07T17:06:46.944Z,9.79
2018-12-07T17:09:14.907Z,9.58
2018-12-07T17:11:44.207Z,9.61
2018-12-07T17:14:12.143Z,9.57
2018-12-07T17:16:40.343Z,9.53
2018-12-07T17:19:08.579Z,9.45
2018-12-07T17:21:36.606Z,9.43
2018-12-07T17:24:04.487Z,9.40
2018-12-07T17:26:32.434Z,9.37
2018-12-07T17:29:00.417Z,9.24
2018-12-07T17:31:28.992Z,9.22
2018-12-07T17:33:57.006Z,9.42
2018-12-07T17:36:24.909Z,9.39
2018-12-07T17:38:52.781Z,9.69
2018-12-07T17:41:20.599Z,9.64
2018-12-07T17:43:48.481Z,9.66
2018-12-07T17:46:16.482Z,9.43
2018-12-07T17:48:44.385Z,9.54
2018-12-07T17:51:13.442Z,9.54
2018-12-07T17:53:41.495Z,9.51
2018-12-07T17:56:09.371Z,9.44
2018-12-07T17:58:37.406Z,9.50
2018-12-07T18:01:05.382Z,9.51
2018-12-07T18:03:33.761Z,9.27
2018-12-07T18:06:02.287Z,9.45
2018-12-07T18:08:30.122Z,9.38
2018-12-07T18:10:57.901Z,9.12
2018-12-07T18:13:25.756Z,9.27
2018-12-07T18:15:53.973Z,9.29
2018-12-07T18:18:22.064Z,9.12
2018-12-07T18:20:49.841Z,9.24
2018-12-07T18:23:17.639Z,9.10
2018-12-07T18:25:45.523Z,9.20
2018-12-07T18:28:13.399Z,9.04
2018-12-07T18:30:41.600Z,9.07
2018-12-07T18:33:09.468Z,9.18
2018-12-07T18:35:37.486Z,9.15
2018-12-07T18:38:05.494Z,9.18
2018-12-07T18:40:33.360Z,9.20
2018-12-07T18:43:01.372Z,9.27
2018-12-07T18:45:29.323Z,9.38
2018-12-07T18:47:57.278Z,9.26
2018-12-07T18:50:25.946Z,9.19
2018-12-07T18:52:53.939Z,9.23
2018-12-07T18:55:21.815Z,9.30
2018-12-07T18:57:49.834Z,9.19
2018-12-07T19:00:17.698Z,9.04
2018-12-07T19:02:45.795Z,9.06
2018-12-07T19:05:13.809Z,8.99
2018-12-07T19:07:41.807Z,8.88
2018-12-07T19:10:09.914Z,8.99
2018-12-07T19:12:37.902Z,9.13
2018-12-07T19:15:06.983Z,9.14
2018-12-07T19:17:34.956Z,8.74
2018-12-07T19:20:02.999Z,8.94
2018-12-07T19:22:31.048Z,9.08
2018-12-07T19:24:59.097Z,9.05
2018-12-07T19:27:26.855Z,9.01
2018-12-07T19:29:54.566Z,8.98
2018-12-07T19:32:22.472Z,9.00
2018-12-07T19:34:50.479Z,9.14
2018-12-07T19:37:18.612Z,8.93
2018-12-07T19:39:51.586Z,8.88
2018-12-07T19:42:20.097Z,8.83
2018-12-07T19:44:47.939Z,8.99
2018-12-07T19:47:15.851Z,9.00
2018-12-07T19:49:44.024Z,8.94
2018-12-07T19:52:12.213Z,8.90
2018-12-07T19:54:40.332Z,8.77
2018-12-07T19:57:08.598Z,8.92
2018-12-07T19:59:36.577Z,9.15
2018-12-07T20:02:04.765Z,9.05
2018-12-07T20:04:32.858Z,9.07
2018-12-07T20:07:00.876Z,9.13
2018-12-07T20:09:28.897Z,9.15
2018-12-07T20:11:56.872Z,9.25
2018-12-07T20:14:25.053Z,8.93
2018-12-07T20:16:53.270Z,8.90
2018-12-07T20:19:21.129Z,8.88
2018-12-07T20:21:49.138Z,8.80
2018-12-07T20:24:17.059Z,8.83
2018-12-07T20:26:44.923Z,9.04
2018-12-07T20:29:12.966Z,8.94
2018-12-07T20:31:40.693Z,9.00
2018-12-07T20:34:08.554Z,9.00
2018-12-07T20:36:36.405Z,8.95
2018-12-07T20:39:07.117Z,8.99
2018-12-07T20:41:35.303Z,8.87
2018-12-07T20:44:03.391Z,9.02
2018-12-07T20:46:31.193Z,8.96
2018-12-07T20:48:58.993Z,9.03
2018-12-07T20:51:27.086Z,9.00
2018-12-07T20:53:55.267Z,8.78
2018-12-07T20:56:23.368Z,8.76
2018-12-07T20:58:51.271Z,8.81
2018-12-07T21:01:19.126Z,8.99
2018-12-07T21:07:41.956Z,8.74
2018-12-07T21:10:38.159Z,8.61
2018-12-07T21:13:35.061Z,8.70
2018-12-07T21:16:15.391Z,8.49
2018-12-07T21:18:43.871Z,8.51
2018-12-07T21:21:11.800Z,8.56
2018-12-07T21:23:39.960Z,8.74
2018-12-07T21:26:07.951Z,8.32
2018-12-07T21:28:35.736Z,8.23
2018-12-07T21:31:03.980Z,8.30
2018-12-07T21:33:48.905Z,8.25
2018-12-07T21:36:35.858Z,8.41
2018-12-07T21:39:11.047Z,8.38
2018-12-07T21:41:40.776Z,8.13
2018-12-07T21:44:08.825Z,8.19
2018-12-07T21:46:37.417Z,8.21
2018-12-07T21:49:05.297Z,8.26
2018-12-07T21:51:46.855Z,8.27
2018-12-07T21:54:14.721Z,8.37
2018-12-07T21:56:42.697Z,8.37
2018-12-07T21:59:10.536Z,8.36
2018-12-07T22:01:38.454Z,8.17
2018-12-07T22:04:06.370Z,8.60
2018-12-07T22:06:34.153Z,8.46
2018-12-07T22:09:02.223Z,8.31
2018-12-07T22:11:30.273Z,8.48
2018-12-07T22:13:58.070Z,8.28
2018-12-07T22:16:25.848Z,8.40
2018-12-07T22:18:53.656Z,8.43
2018-12-07T22:21:21.567Z,8.13
2018-12-07T22:23:49.409Z,8.12
2018-12-07T22:26:17.336Z,8.44
2018-12-07T22:28:45.273Z,8.31
2018-12-07T22:31:13.212Z,8.27
2018-12-07T22:33:41.213Z,8.24
2018-12-07T22:36:09.692Z,8.35
2018-12-07T22:38:37.850Z,8.26
2018-12-07T22:41:05.979Z,8.22
2018-12-07T22:43:33.913Z,8.29
2018-12-07T22:46:02.598Z,8.15
2018-12-07T22:48:30.533Z,8.59
2018-12-07T22:50:58.375Z,8.25
2018-12-07T22:53:26.150Z,8.15
2018-12-07T22:55:53.961Z,8.10
2018-12-07T22:58:21.806Z,8.18
2018-12-07T23:00:50.524Z,8.14
2018-12-07T23:03:18.849Z,8.02
2018-12-07T23:05:46.621Z,8.11
2018-12-07T23:08:14.410Z,8.27
2018-12-07T23:10:42.124Z,8.07
2018-12-07T23:13:09.903Z,8.15
2018-12-07T23:15:37.685Z,8.14
2018-12-07T23:18:05.508Z,8.11
2018-12-07T23:20:33.326Z,8.32
2018-12-07T23:23:01.117Z,8.23
2018-12-07T23:25:28.879Z,8.30
2018-12-07T23:27:56.652Z,8.36
2018-12-07T23:30:24.386Z,8.05
2018-12-07T23:32:52.169Z,8.15
2018-12-07T23:35:19.957Z,8.32
2018-12-07T23:37:47.728Z,8.21
2018-12-07T23:40:15.662Z,8.43
2018-12-07T23:42:44.364Z,8.35
2018-12-07T23:45:12.469Z,8.34
2018-12-07T23:47:40.252Z,8.33
2018-12-07T23:50:08.436Z,8.47
2018-12-07T23:52:36.250Z,8.50
2018-12-07T23:55:04.608Z,8.32
2018-12-07T23:57:32.358Z,8.33
